Latest Coastal Weather Observations for Evans Head

IDN60701

Issued at 3:31 pm EST Saturday 29 April 2017 (issued every 10 minutes, with the page automatically refreshed every 10 minutes)

About coastal observations | Map of coastal stations | Coastal observations for NSW | Marine services | Other Formats
Station Details ID: 058212 Name: EVANS HEAD RAAF BOMBING RANGE AWS Lat: -29.18 Lon: 153.40 Height: 62.5 m
Data from the previous 72 hours. | See also: Recent months at Evans Head
Date/Time
EST
Temp
°C
Wind Pressure Rain since
9am
mm
Weather Cloud Vis
km
Sea
Height
m
Swell
Dir  Spd
kts
Gust
kts
hPa Trend Height
m
Period
s
Dir
29/03:30pm 20.6 SSE 9 13 1017.6 - 0.0 - - - - - - -
29/03:00pm 21.2 S 9 13 1017.7 - 0.0 - - - - - - -
29/02:30pm 21.5 S 10 15 1017.7 - 0.0 - - - - - - -
29/02:00pm 22.0 S 11 15 1017.7 - 0.0 - - - - - - -
29/01:30pm 21.9 S 12 15 1017.7 - 0.0 - - - - - - -
29/01:00pm 22.0 S 10 14 1018.1 - 0.0 - - - - - - -
29/12:30pm 21.9 S 11 16 1018.4 - 0.0 - - - - - - -
29/12:00pm 21.8 SSW 10 14 1018.6 - 0.0 - - - - - - -
29/11:30am 21.7 SSW 11 17 1019.0 - 0.0 - - - - - - -
29/11:00am 21.2 SSW 12 17 1019.5 - 0.0 - - - - - - -
29/10:30am 20.6 SSW 12 17 1019.9 - 0.0 - - - - - - -
29/10:00am 20.4 S 11 19 1020.0 - 0.0 - - - - - - -
29/09:30am 20.2 SW 8 15 1019.9 - 0.0 - - - - - - -
29/09:00am 18.5 SW 7 13 1019.8 - 0.0 - - - - - - -
29/08:30am 17.5 WSW 7 11 1019.7 - 0.0 - - - - - - -
29/08:00am 16.4 WSW 9 12 1019.4 - 0.0 - - - - - - -
29/07:30am 15.3 WSW 9 12 1019.2 - 0.0 - - - - - - -
29/07:00am 14.8 WSW 10 13 1018.7 - 0.0 - - - - - - -
29/06:30am 14.5 WSW 10 14 1018.2 - 0.0 - - - - - - -
29/06:00am 14.2 WSW 10 13 1018.1 - 0.0 - - - - - - -
29/05:30am 14.5 SW 10 13 1017.9 - 0.0 - - - - - - -
29/05:00am 14.4 SW 9 13 1017.8 - 0.0 - - - - - - -
29/04:30am 14.6 SW 10 13 1017.5 - 0.0 - - - - - - -
29/04:00am 14.5 WSW 10 13 1017.4 - 0.0 - - - - - - -
29/03:30am 14.5 WSW 10 13 1017.4 - 0.0 - - - - - - -
29/03:00am 14.4 WSW 10 13 1017.4 - 0.0 - - - - - - -
29/02:30am 14.5 WSW 10 13 1017.4 - 0.0 - - - - - - -
29/02:00am 14.9 SW 11 14 1017.4 - 0.0 - - - - - - -
29/01:30am 14.8 WSW 9 13 1017.7 - 0.0 - - - - - - -
29/01:00am 15.3 SW 11 15 1017.9 - 0.0 - - - - - - -
29/12:30am 15.4 SW 12 17 1018.0 - 0.0 - - - - - - -
29/12:00am 15.9 SW 12 16 1018.1 - 0.0 - - - - - - -
 
Date/Time
EST
Temp
°C
Wind Pressure Rain since
9am
mm
Weather Cloud Vis
km
Sea
Height
m
Swell
Dir  Spd
kts
Gust
kts
hPa Trend Height
m
Period
s
Dir
28/11:30pm 16.1 SW 13 19 1018.3 - 0.0 - - - - - - -
28/11:00pm 16.5 SW 14 21 1018.4 - 0.0 - - - - - - -
28/10:30pm 16.6 SSW 14 20 1018.4 - 0.0 - - - - - - -
28/10:00pm 17.1 SSW 14 22 1018.4 - 0.0 - - - - - - -
28/09:30pm 17.7 SSW 14 20 1018.2 - 0.0 - - - - - - -
28/09:00pm 17.7 SSW 15 22 1018.0 - 0.0 - - - - - - -
28/08:30pm 17.6 SSW 14 21 1017.9 - 0.0 - - - - - - -
28/08:00pm 17.5 SSW 13 18 1017.9 - 0.0 - - - - - - -
28/07:30pm 17.3 SSW 13 19 1017.9 - 0.0 - - - - - - -
28/07:00pm 17.5 SSW 14 21 1017.7 - 0.0 - - - - - - -
28/06:30pm 17.5 SSW 16 26 1017.2 - 0.0 - - - - - - -
28/06:25pm 17.5 SSW 16 26 1017.2 - 0.0 - - - - - - -
28/06:00pm 17.4 SSW 17 25 1016.9 - 0.0 - - - - - - -
28/05:30pm 17.3 SSW 19 30 1016.7 - 0.0 - - - - - - -
28/05:00pm 17.9 SSW 21 31 1016.2 - 0.0 - - - - - - -
28/04:36pm 18.4 SSW 18 28 1016.1 - 0.0 - - - - - - -
28/04:30pm 18.4 SSW 20 28 1015.9 - 0.0 - - - - - - -
28/04:01pm 17.9 SSW 20 30 1015.8 - 0.0 - - - - - - -
28/04:00pm 18.0 SSW 21 30 1015.8 - 0.0 - - - - - - -
28/03:32pm 19.0 SSW 19 29 1015.5 - 0.0 - - - - - - -
28/03:30pm 19.0 SSW 20 29 1015.4 - 0.0 - - - - - - -
28/03:00pm 18.7 SSW 21 36 1015.4 - 0.0 - - - - - - -
28/02:30pm 19.0 SSW 22 34 1015.2 - 0.0 - - - - - - -
28/02:00pm 19.1 S 23 33 1015.0 - 0.0 - - - - - - -
28/01:30pm 19.4 SSW 19 33 1015.0 - 0.0 - - - - - - -
28/01:00pm 19.5 SSW 19 32 1015.0 - 0.0 - - - - - - -
28/12:31pm 19.1 SSW 18 28 1015.4 - 0.0 - - - - - - -
28/12:30pm 19.2 SSW 18 27 1015.4 - 0.0 - - - - - - -
28/12:00pm 19.2 SSW 17 27 1015.7 - 0.0 - - - - - - -
28/11:40am 19.5 SSW 15 25 1016.0 - 0.0 - - - - - - -
28/11:30am 20.2 SSW 14 22 1016.0 - 0.0 - - - - - - -
28/11:04am 18.9 SSW 15 27 1016.4 - 0.0 - - - - - - -
28/11:00am 19.0 SSW 13 21 1016.5 - 0.0 - - - - - - -
28/10:30am 19.0 SSW 15 23 1016.7 - 0.0 - - - - - - -
28/10:00am 19.1 SSW 10 21 1016.7 - 0.0 - - - - - - -
28/09:30am 18.5 SW 9 16 1016.8 - 0.0 - - - - - - -
28/09:00am 17.0 WSW 8 12 1017.0 - 0.0 - - - - - - -
28/08:30am 15.9 WSW 7 10 1017.0 - 0.0 - - - - - - -
28/08:00am 15.5 WSW 9 12 1016.8 - 0.0 - - - - - - -
28/07:30am 14.8 W 7 11 1016.4 - 0.0 - - - - - - -
28/07:00am 13.6 W 7 11 1015.9 - 0.0 - - - - - - -
28/06:30am 13.7 WSW 8 11 1015.3 - 0.0 - - - - - - -
28/06:00am 13.4 WSW 8 11 1014.6 - 0.0 - - - - - - -
28/05:30am 13.2 WSW 9 12 1014.2 - 0.0 - - - - - - -
28/05:00am 12.9 WSW 8 10 1014.0 - 0.0 - - - - - - -
28/04:30am 12.8 WSW 7 10 1013.9 - 0.0 - - - - - - -
28/04:00am 13.0 W 7 9 1013.7 - 0.0 - - - - - - -
28/03:30am 13.2 W 8 10 1013.6 - 0.0 - - - - - - -
28/03:00am 13.3 W 7 9 1013.7 - 0.0 - - - - - - -
28/02:30am 13.1 WSW 9 12 1013.9 - 0.0 - - - - - - -
28/02:00am 13.2 WSW 10 13 1014.1 - 0.0 - - - - - - -
28/01:30am 13.2 WSW 9 12 1014.3 - 0.0 - - - - - - -
28/01:00am 13.4 WSW 9 13 1014.7 - 0.0 - - - - - - -
28/12:30am 13.8 WSW 9 13 1015.1 - 0.0 - - - - - - -
28/12:00am 14.1 SW 8 11 1015.2 - 0.0 - - - - - - -
 
Date/Time
EST
Temp
°C
Wind Pressure Rain since
9am
mm
Weather Cloud Vis
km
Sea
Height
m
Swell
Dir  Spd
kts
Gust
kts
hPa Trend Height
m
Period
s
Dir
27/11:30pm 14.4 SW 8 12 1015.3 - 0.0 - - - - - - -
27/11:00pm 14.9 SW 9 15 1015.5 - 0.0 - - - - - - -
27/10:30pm 14.9 SW 11 15 1015.5 - 0.0 - - - - - - -
27/10:00pm 15.4 SSW 12 19 1015.5 - 0.0 - - - - - - -
27/09:30pm 15.9 SW 11 17 1015.4 - 0.0 - - - - - - -
27/09:00pm 16.1 SW 10 15 1015.1 - 0.0 - - - - - - -
27/08:30pm 16.2 WSW 9 11 1014.7 - 0.0 - - - - - - -
27/08:00pm 16.0 WSW 7 9 1014.5 - 0.0 - - - - - - -
27/07:30pm 16.0 W 7 8 1014.3 - 0.0 - - - - - - -
27/07:00pm 16.4 WSW 7 9 1014.0 - 0.0 - - - - - - -
27/06:30pm 16.5 WSW 7 9 1013.6 - 0.0 - - - - - - -
27/06:00pm 16.6 W 5 6 1013.5 - 0.0 - - - - - - -
27/05:30pm 16.4 WNW 4 5 1013.4 - 0.0 - - - - - - -
27/05:00pm 16.8 WNW 4 5 1013.1 - 0.0 - - - - - - -
27/04:30pm 17.2 WNW 3 5 1012.8 - 0.0 - - - - - - -
27/04:00pm 17.6 SW 4 6 1012.4 - 0.0 - - - - - - -
27/03:30pm 18.1 SSW 7 10 1012.2 - 0.0 - - - - - - -
27/03:00pm 18.5 SSW 8 12 1012.0 - 0.0 - - - - - - -
27/02:30pm 19.3 SSW 8 15 1011.9 - 0.0 - - - - - - -
27/02:00pm 19.0 SW 8 13 1012.0 - 0.0 - - - - - - -
27/01:30pm 18.2 SW 8 11 1012.2 - 0.0 - - - - - - -
27/01:00pm 18.4 SSW 8 12 1012.4 - 0.0 - - - - - - -
27/12:30pm 18.9 SSW 7 11 1012.6 - 0.0 - - - - - - -
27/12:00pm 19.3 S 7 11 1012.8 - 0.0 - - - - - - -
27/11:30am 19.1 SW 7 11 1013.2 - 0.0 - - - - - - -
27/11:00am 18.4 WSW 7 11 1013.3 - 0.0 - - - - - - -
27/10:30am 17.5 WSW 7 11 1013.4 - 0.0 - - - - - - -
27/10:00am 16.8 W 5 8 1013.6 - 0.0 - - - - - - -
27/09:30am 16.5 WSW 7 10 1013.6 - 0.0 - - - - - - -
27/09:00am 15.6 W 4 7 1013.7 - 3.0 - - - - - - -
27/08:30am 15.0 W 5 9 1013.4 - 3.0 - - - - - - -
27/08:00am 14.0 W 6 8 1012.9 - 3.0 - - - - - - -
27/07:30am 13.0 W 8 10 1012.2 - 3.0 - - - - - - -
27/07:00am 11.8 W 7 11 1012.2 - 3.0 - - - - - - -
27/06:30am 11.0 W 7 9 1011.8 - 3.0 - - - - - - -
27/06:00am 11.2 W 7 11 1011.6 - 3.0 - - - - - - -
27/05:30am 11.4 W 7 10 1011.4 - 3.0 - - - - - - -
27/05:00am 11.2 WSW 6 9 1011.3 - 3.0 - - - - - - -
27/04:30am 11.7 WSW 9 12 1010.8 - 3.0 - - - - - - -
27/04:00am 12.1 SW 8 13 1010.8 - 3.0 - - - - - - -
27/03:30am 12.9 WSW 7 11 1010.6 - 3.0 - - - - - - -
27/03:00am 13.9 W 7 11 1010.4 - 3.0 - - - - - - -
27/02:30am 14.1 NW 3 6 1010.4 - 3.0 - - - - - - -
27/02:00am 14.3 SW 6 9 1010.7 - 3.0 - - - - - - -
27/01:30am 14.8 WSW 8 10 1010.9 - 3.0 - - - - - - -
27/01:00am 15.2 SW 7 11 1011.2 - 3.0 - - - - - - -
27/12:30am 16.0 SW 10 15 1010.7 - 3.0 - - - - - - -
27/12:00am 16.9 SW 10 15 1010.6 - 3.0 - - - - - - -
 
Date/Time
EST
Temp
°C
Wind Pressure Rain since
9am
mm
Weather Cloud Vis
km
Sea
Height
m
Swell
Dir  Spd
kts
Gust
kts
hPa Trend Height
m
Period
s
Dir
26/11:30pm 17.3 WNW 6 9 1009.8 - 3.0 - - - - - - -
26/11:00pm 18.0 WNW 7 11 1009.8 - 3.0 - - - - - - -
26/10:30pm 18.0 WNW 7 9 1009.8 - 3.0 - - - - - - -
26/10:00pm 18.6 WNW 8 12 1009.5 - 3.0 - - - - - - -
26/09:30pm 18.0 NW 7 10 1009.5 - 3.0 - - - - - - -
26/09:00pm 17.9 NW 7 11 1009.3 - 3.0 - - - - - - -
26/08:30pm 17.8 NNW 6 11 1008.9 - 3.0 - - - - - - -
26/08:00pm 18.1 NNW 6 7 1008.5 - 3.0 - - - - - - -
26/07:30pm 18.8 NNW 8 13 1008.2 - 3.0 - - - - - - -
26/07:00pm 20.1 NW 7 13 1008.4 - 3.0 - - - - - - -
26/06:30pm 19.9 NNW 10 15 1007.6 - 3.0 - - - - - - -
26/06:00pm 19.0 NNW 10 15 1006.9 - 3.0 - - - - - - -
26/05:30pm 19.0 NNW 8 11 1006.8 - 3.0 - - - - - - -
26/05:00pm 20.0 NNW 11 17 1006.5 - 3.0 - - - - - - -
26/04:30pm 20.9 NNW 11 20 1006.4 - 3.0 - - - - - - -
26/04:00pm 21.9 N 9 17 1006.1 - 3.0 - - - - - - -

Other Formats:

Comma delimited format used in spreadsheet applications
http://www.bom.gov.au/fwo/IDN60701/IDN60701.94598.axf

JavaScript Object Notation format (JSON) in row-major order
http://www.bom.gov.au/fwo/IDN60701/IDN60701.94598.json